sensor_id;sensor_type;location;lat;lon;timestamp;pressure;altitude;pressure_sealevel;temperature;humidity
8705;BME280;4389;41.932;25.904;2023-04-21T00:00:51;100093.00;;;13.26;99.33
8705;BME280;4389;41.932;25.904;2023-04-21T00:03:19;100072.88;;;13.08;99.05
8705;BME280;4389;41.932;25.904;2023-04-21T00:05:46;100078.03;;;13.17;99.63
8705;BME280;4389;41.932;25.904;2023-04-21T00:08:14;100079.72;;;13.18;99.48
8705;BME280;4389;41.932;25.904;2023-04-21T00:10:42;100078.03;;;13.17;99.58
8705;BME280;4389;41.932;25.904;2023-04-21T00:13:09;100083.03;;;13.20;100.00
8705;BME280;4389;41.932;25.904;2023-04-21T00:15:36;100077.06;;;13.26;99.73
8705;BME280;4389;41.932;25.904;2023-04-21T00:18:03;100077.72;;;13.20;100.00
8705;BME280;4389;41.932;25.904;2023-04-21T00:20:31;100079.38;;;13.21;100.00
8705;BME280;4389;41.932;25.904;2023-04-21T00:22:58;100064.72;;;13.09;100.00
8705;BME280;4389;41.932;25.904;2023-04-21T00:25:25;100075.22;;;13.19;100.00
8705;BME280;4389;41.932;25.904;2023-04-21T00:27:54;100067.91;;;13.21;100.00
8705;BME280;4389;41.932;25.904;2023-04-21T00:30:20;100062.75;;;13.11;99.48
8705;BME280;4389;41.932;25.904;2023-04-21T00:32:47;100066.06;;;13.05;99.74
8705;BME280;4389;41.932;25.904;2023-04-21T00:35:14;100069.00;;;13.02;100.00
8705;BME280;4389;41.932;25.904;2023-04-21T00:37:41;100063.28;;;12.89;100.00
8705;BME280;4389;41.932;25.904;2023-04-21T00:40:08;100067.59;;;12.82;100.00
8705;BME280;4389;41.932;25.904;2023-04-21T00:42:35;100057.63;;;12.76;100.00
8705;BME280;4389;41.932;25.904;2023-04-21T00:45:04;100049.66;;;12.76;100.00
8705;BME280;4389;41.932;25.904;2023-04-21T00:47:31;100050.66;;;12.75;100.00
8705;BME280;4389;41.932;25.904;2023-04-21T00:49:58;100048.75;;;12.60;100.00
8705;BME280;4389;41.932;25.904;2023-04-21T00:52:25;100053.06;;;12.61;100.00
8705;BME280;4389;41.932;25.904;2023-04-21T00:54:53;100049.97;;;12.40;99.75
8705;BME280;4389;41.932;25.904;2023-04-21T00:57:21;100051.03;;;12.21;98.87
8705;BME280;4389;41.932;25.904;2023-04-21T00:59:48;100055.44;;;11.87;99.53
8705;BME280;4389;41.932;25.904;2023-04-21T01:02:17;100048.81;;;11.48;100.00
8705;BME280;4389;41.932;25.904;2023-04-21T01:04:44;100046.63;;;11.44;100.00
8705;BME280;4389;41.932;25.904;2023-04-21T01:07:11;100047.22;;;11.20;100.00
8705;BME280;4389;41.932;25.904;2023-04-21T01:09:38;100050.91;;;10.92;100.00
8705;BME280;4389;41.932;25.904;2023-04-21T01:12:06;100049.41;;;10.80;100.00
8705;BME280;4389;41.932;25.904;2023-04-21T01:14:34;100051.44;;;10.69;100.00
8705;BME280;4389;41.932;25.904;2023-04-21T01:17:01;100042.78;;;10.76;100.00
8705;BME280;4389;41.932;25.904;2023-04-21T01:19:32;100042.25;;;10.90;100.00
8705;BME280;4389;41.932;25.904;2023-04-21T01:22:02;100044.63;;;10.93;100.00
8705;BME280;4389;41.932;25.904;2023-04-21T01:24:36;100042.91;;;11.02;100.00
8705;BME280;4389;41.932;25.904;2023-04-21T01:27:08;100040.13;;;10.94;100.00
8705;BME280;4389;41.932;25.904;2023-04-21T01:29:36;100050.50;;;10.87;100.00
8705;BME280;4389;41.932;25.904;2023-04-21T01:32:04;100047.75;;;10.79;100.00
8705;BME280;4389;41.932;25.904;2023-04-21T01:34:32;100053.06;;;10.79;100.00
8705;BME280;4389;41.932;25.904;2023-04-21T01:36:59;100050.91;;;10.65;100.00
8705;BME280;4389;41.932;25.904;2023-04-21T01:39:27;100050.13;;;10.55;100.00
8705;BME280;4389;41.932;25.904;2023-04-21T01:41:55;100040.69;;;10.43;100.00
8705;BME280;4389;41.932;25.904;2023-04-21T01:44:24;100053.25;;;10.41;100.00
8705;BME280;4389;41.932;25.904;2023-04-21T01:46:51;100061.56;;;10.46;100.00
8705;BME280;4389;41.932;25.904;2023-04-21T01:49:18;100054.41;;;10.29;100.00
8705;BME280;4389;41.932;25.904;2023-04-21T01:51:45;100057.63;;;10.14;100.00
8705;BME280;4389;41.932;25.904;2023-04-21T01:54:12;100053.88;;;10.16;100.00
8705;BME280;4389;41.932;25.904;2023-04-21T01:56:40;100050.22;;;10.27;100.00
8705;BME280;4389;41.932;25.904;2023-04-21T01:59:07;100048.63;;;10.07;100.00
8705;BME280;4389;41.932;25.904;2023-04-21T02:01:34;100044.41;;;10.14;100.00
8705;BME280;4389;41.932;25.904;2023-04-21T02:04:01;100048.03;;;10.22;100.00
8705;BME280;4389;41.932;25.904;2023-04-21T02:06:28;100047.72;;;10.25;100.00
8705;BME280;4389;41.932;25.904;2023-04-21T02:08:56;100047.72;;;10.25;100.00
8705;BME280;4389;41.932;25.904;2023-04-21T02:11:23;100051.34;;;10.24;100.00
8705;BME280;4389;41.932;25.904;2023-04-21T02:13:52;100040.88;;;10.32;100.00
8705;BME280;4389;41.932;25.904;2023-04-21T02:16:19;100052.69;;;10.38;100.00
8705;BME280;4389;41.932;25.904;2023-04-21T02:18:46;100047.16;;;10.31;100.00
8705;BME280;4389;41.932;25.904;2023-04-21T02:21:13;100043.88;;;10.01;100.00
8705;BME280;4389;41.932;25.904;2023-04-21T02:23:40;100049.47;;;9.69;100.00
8705;BME280;4389;41.932;25.904;2023-04-21T02:26:07;100040.88;;;9.67;100.00
8705;BME280;4389;41.932;25.904;2023-04-21T02:28:34;100043.94;;;9.72;100.00
8705;BME280;4389;41.932;25.904;2023-04-21T02:31:03;100040.56;;;9.80;100.00
8705;BME280;4389;41.932;25.904;2023-04-21T02:33:30;100039.47;;;9.82;100.00
8705;BME280;4389;41.932;25.904;2023-04-21T02:35:56;100044.47;;;9.85;100.00
8705;BME280;4389;41.932;25.904;2023-04-21T02:38:23;100045.91;;;9.70;100.00
8705;BME280;4389;41.932;25.904;2023-04-21T02:40:50;100046.16;;;9.67;100.00
8705;BME280;4389;41.932;25.904;2023-04-21T02:43:17;100050.34;;;9.60;100.00
8705;BME280;4389;41.932;25.904;2023-04-21T02:45:43;100055.34;;;9.63;100.00
8705;BME280;4389;41.932;25.904;2023-04-21T02:48:12;100062.56;;;9.61;100.00
8705;BME280;4389;41.932;25.904;2023-04-21T02:50:39;100046.44;;;9.64;100.00
8705;BME280;4389;41.932;25.904;2023-04-21T02:53:06;100042.53;;;9.68;100.00
8705;BME280;4389;41.932;25.904;2023-04-21T02:55:33;100046.81;;;9.79;100.00
8705;BME280;4389;41.932;25.904;2023-04-21T02:58:00;100052.00;;;9.61;100.00
8705;BME280;4389;41.932;25.904;2023-04-21T03:00:26;100053.13;;;9.49;100.00
8705;BME280;4389;41.932;25.904;2023-04-21T03:02:53;100044.50;;;9.47;100.00
8705;BME280;4389;41.932;25.904;2023-04-21T03:05:21;100039.22;;;9.57;100.00
8705;BME280;4389;41.932;25.904;2023-04-21T03:07:48;100043.13;;;9.43;100.00
8705;BME280;4389;41.932;25.904;2023-04-21T03:10:15;100053.69;;;9.24;100.00
8705;BME280;4389;41.932;25.904;2023-04-21T03:12:42;100050.59;;;9.19;100.00
8705;BME280;4389;41.932;25.904;2023-04-21T03:15:09;100048.66;;;9.12;100.00
8705;BME280;4389;41.932;25.904;2023-04-21T03:17:37;100049.78;;;9.09;100.00
8705;BME280;4389;41.932;25.904;2023-04-21T03:20:05;100050.59;;;8.91;100.00
8705;BME280;4389;41.932;25.904;2023-04-21T03:22:34;100048.06;;;8.89;100.00
8705;BME280;4389;41.932;25.904;2023-04-21T03:25:00;100041.44;;;8.95;100.00
8705;BME280;4389;41.932;25.904;2023-04-21T03:27:27;100040.19;;;8.99;100.00
8705;BME280;4389;41.932;25.904;2023-04-21T03:29:54;100035.59;;;8.92;100.00
8705;BME280;4389;41.932;25.904;2023-04-21T03:32:21;100049.19;;;8.96;100.00
8705;BME280;4389;41.932;25.904;2023-04-21T03:34:48;100054.97;;;8.72;100.00
8705;BME280;4389;41.932;25.904;2023-04-21T03:37:15;100055.22;;;8.69;100.00
8705;BME280;4389;41.932;25.904;2023-04-21T03:39:43;100060.84;;;8.85;100.00
8705;BME280;4389;41.932;25.904;2023-04-21T03:42:10;100058.09;;;8.95;100.00
8705;BME280;4389;41.932;25.904;2023-04-21T03:44:37;100060.88;;;9.03;100.00
8705;BME280;4389;41.932;25.904;2023-04-21T03:47:04;100058.38;;;9.21;100.00
8705;BME280;4389;41.932;25.904;2023-04-21T03:49:33;100051.72;;;9.45;100.00
8705;BME280;4389;41.932;25.904;2023-04-21T03:51:59;100052.41;;;9.85;100.00
8705;BME280;4389;41.932;25.904;2023-04-21T03:54:26;100051.66;;;10.12;99.14
8705;BME280;4389;41.932;25.904;2023-04-21T03:56:54;100057.72;;;10.31;97.88
8705;BME280;4389;41.932;25.904;2023-04-21T03:59:22;100056.97;;;10.75;96.21
8705;BME280;4389;41.932;25.904;2023-04-21T04:01:48;100057.38;;;11.42;93.83
8705;BME280;4389;41.932;25.904;2023-04-21T04:04:15;100067.16;;;12.02;90.87
8705;BME280;4389;41.932;25.904;2023-04-21T04:06:42;100067.13;;;12.53;87.85
8705;BME280;4389;41.932;25.904;2023-04-21T04:09:09;100071.94;;;12.91;85.49
8705;BME280;4389;41.932;25.904;2023-04-21T04:11:35;100076.94;;;12.94;84.28
8705;BME280;4389;41.932;25.904;2023-04-21T04:14:04;100078.03;;;12.76;83.67
8705;BME280;4389;41.932;25.904;2023-04-21T04:16:32;100090.66;;;12.48;85.56
8705;BME280;4389;41.932;25.904;2023-04-21T04:18:59;100084.63;;;12.38;86.00
8705;BME280;4389;41.932;25.904;2023-04-21T04:21:26;100090.81;;;12.47;86.37
8705;BME280;4389;41.932;25.904;2023-04-21T04:23:53;100093.50;;;12.88;85.74
8705;BME280;4389;41.932;25.904;2023-04-21T04:26:20;100095.97;;;13.23;84.15
8705;BME280;4389;41.932;25.904;2023-04-21T04:28:49;100096.06;;;13.63;82.35
8705;BME280;4389;41.932;25.904;2023-04-21T04:31:17;100101.72;;;13.76;81.72
8705;BME280;4389;41.932;25.904;2023-04-21T04:33:44;100107.84;;;13.68;80.98
8705;BME280;4389;41.932;25.904;2023-04-21T04:36:11;100104.56;;;14.22;80.12
8705;BME280;4389;41.932;25.904;2023-04-21T04:38:38;100102.03;;;14.37;78.66
8705;BME280;4389;41.932;25.904;2023-04-21T04:41:06;100114.69;;;14.11;78.57
8705;BME280;4389;41.932;25.904;2023-04-21T04:43:33;100102.88;;;13.66;79.84
8705;BME280;4389;41.932;25.904;2023-04-21T04:46:03;100108.31;;;13.32;81.73
8705;BME280;4389;41.932;25.904;2023-04-21T04:48:32;100096.59;;;13.09;83.89
8705;BME280;4389;41.932;25.904;2023-04-21T04:50:58;100106.72;;;12.72;86.39
8705;BME280;4389;41.932;25.904;2023-04-21T04:53:26;100104.44;;;12.85;87.97
8705;BME280;4389;41.932;25.904;2023-04-21T04:55:53;100099.88;;;12.95;88.42
8705;BME280;4389;41.932;25.904;2023-04-21T04:58:22;100096.28;;;13.12;88.83
8705;BME280;4389;41.932;25.904;2023-04-21T05:00:49;100094.03;;;13.33;88.46
8705;BME280;4389;41.932;25.904;2023-04-21T05:03:16;100099.00;;;13.36;88.22
8705;BME280;4389;41.932;25.904;2023-04-21T05:05:44;100099.19;;;13.43;89.06
8705;BME280;4389;41.932;25.904;2023-04-21T05:08:11;100095.31;;;13.21;89.95
8705;BME280;4389;41.932;25.904;2023-04-21T05:10:37;100093.78;;;13.11;91.09
8705;BME280;4389;41.932;25.904;2023-04-21T05:13:04;100096.81;;;13.16;92.18
8705;BME280;4389;41.932;25.904;2023-04-21T05:15:31;100093.81;;;13.27;92.64
8705;BME280;4389;41.932;25.904;2023-04-21T05:17:58;100092.03;;;13.35;92.87
8705;BME280;4389;41.932;25.904;2023-04-21T05:20:25;100082.75;;;13.47;92.53
8705;BME280;4389;41.932;25.904;2023-04-21T05:22:53;100084.41;;;13.56;92.28
8705;BME280;4389;41.932;25.904;2023-04-21T05:25:20;100087.06;;;13.48;91.98
8705;BME280;4389;41.932;25.904;2023-04-21T05:27:46;100083.75;;;13.62;92.84
8705;BME280;4389;41.932;25.904;2023-04-21T05:30:14;100074.13;;;13.85;92.81
8705;BME280;4389;41.932;25.904;2023-04-21T05:32:41;100074.28;;;14.07;91.39
8705;BME280;4389;41.932;25.904;2023-04-21T05:35:08;100078.41;;;14.42;90.56
8705;BME280;4389;41.932;25.904;2023-04-21T05:37:35;100071.72;;;14.54;88.82
8705;BME280;4389;41.932;25.904;2023-04-21T05:40:03;100076.03;;;14.63;90.43
8705;BME280;4389;41.932;25.904;2023-04-21T05:42:30;100072.06;;;14.51;90.33
8705;BME280;4389;41.932;25.904;2023-04-21T05:44:57;100069.59;;;14.49;90.91
8705;BME280;4389;41.932;25.904;2023-04-21T05:47:24;100068.38;;;14.52;90.85
8705;BME280;4389;41.932;25.904;2023-04-21T05:49:50;100070.06;;;14.53;91.25
8705;BME280;4389;41.932;25.904;2023-04-21T05:52:18;100061.56;;;14.57;91.37
8705;BME280;4389;41.932;25.904;2023-04-21T05:54:45;100071.38;;;14.57;91.04
8705;BME280;4389;41.932;25.904;2023-04-21T05:57:13;100071.34;;;14.65;90.18
8705;BME280;4389;41.932;25.904;2023-04-21T05:59:40;100077.13;;;14.76;89.56
8705;BME280;4389;41.932;25.904;2023-04-21T06:02:08;100082.16;;;15.02;88.76
8705;BME280;4389;41.932;25.904;2023-04-21T06:04:34;100081.69;;;15.29;87.71
8705;BME280;4389;41.932;25.904;2023-04-21T06:07:05;100091.88;;;14.95;82.70
8705;BME280;4389;41.932;25.904;2023-04-21T06:09:32;100100.56;;;14.89;82.16
8705;BME280;4389;41.932;25.904;2023-04-21T06:11:59;100094.03;;;14.99;87.96
8705;BME280;4389;41.932;25.904;2023-04-21T06:14:28;100097.22;;;14.87;89.25
8705;BME280;4389;41.932;25.904;2023-04-21T06:16:55;100092.25;;;14.84;88.44
8705;BME280;4389;41.932;25.904;2023-04-21T06:19:22;100102.09;;;14.75;88.24
8705;BME280;4389;41.932;25.904;2023-04-21T06:21:49;100095.91;;;14.91;88.35
8705;BME280;4389;41.932;25.904;2023-04-21T06:24:16;100096.22;;;14.88;89.09
8705;BME280;4389;41.932;25.904;2023-04-21T06:26:49;100098.22;;;14.86;88.20
8705;BME280;4389;41.932;25.904;2023-04-21T06:29:16;100109.28;;;14.75;85.01
8705;BME280;4389;41.932;25.904;2023-04-21T06:31:44;100105.25;;;14.79;84.65
8705;BME280;4389;41.932;25.904;2023-04-21T06:34:11;100100.22;;;14.92;83.95
8705;BME280;4389;41.932;25.904;2023-04-21T06:36:38;100099.25;;;14.85;84.25
8705;BME280;4389;41.932;25.904;2023-04-21T06:39:04;100101.59;;;14.80;85.05
8705;BME280;4389;41.932;25.904;2023-04-21T06:41:31;100103.75;;;14.76;84.53
8705;BME280;4389;41.932;25.904;2023-04-21T06:43:58;100101.16;;;15.07;85.63
8705;BME280;4389;41.932;25.904;2023-04-21T06:46:25;100107.72;;;15.27;88.00
8705;BME280;4389;41.932;25.904;2023-04-21T06:48:53;100104.41;;;15.25;88.39
8705;BME280;4389;41.932;25.904;2023-04-21T06:51:20;100104.38;;;15.33;89.08
8705;BME280;4389;41.932;25.904;2023-04-21T06:53:47;100102.19;;;15.36;88.22
8705;BME280;4389;41.932;25.904;2023-04-21T06:56:14;100112.97;;;15.43;87.62
8705;BME280;4389;41.932;25.904;2023-04-21T06:58:41;100118.31;;;15.43;87.68
8705;BME280;4389;41.932;25.904;2023-04-21T07:01:07;100117.63;;;15.49;83.21
8705;BME280;4389;41.932;25.904;2023-04-21T07:03:34;100119.28;;;15.50;81.14
8705;BME280;4389;41.932;25.904;2023-04-21T07:06:03;100131.50;;;15.67;80.79
8705;BME280;4389;41.932;25.904;2023-04-21T07:08:30;100114.06;;;15.56;80.47
8705;BME280;4389;41.932;25.904;2023-04-21T07:10:56;100125.41;;;15.58;80.07
8705;BME280;4389;41.932;25.904;2023-04-21T07:13:23;100113.47;;;15.69;80.07
8705;BME280;4389;41.932;25.904;2023-04-21T07:15:50;100108.97;;;15.92;79.64
8705;BME280;4389;41.932;25.904;2023-04-21T07:18:17;100119.00;;;15.90;77.31
8705;BME280;4389;41.932;25.904;2023-04-21T07:20:44;100110.63;;;15.93;77.03
8705;BME280;4389;41.932;25.904;2023-04-21T07:23:12;100115.63;;;15.96;76.43
8705;BME280;4389;41.932;25.904;2023-04-21T07:25:39;100120.66;;;16.28;75.86
8705;BME280;4389;41.932;25.904;2023-04-21T07:28:06;100127.09;;;16.19;73.97
8705;BME280;4389;41.932;25.904;2023-04-21T07:30:33;100121.16;;;16.09;74.31
8705;BME280;4389;41.932;25.904;2023-04-21T07:33:00;100122.09;;;16.16;72.36
8705;BME280;4389;41.932;25.904;2023-04-21T07:35:27;100119.63;;;16.14;70.85
8705;BME280;4389;41.932;25.904;2023-04-21T07:37:54;100122.88;;;16.24;70.78
8705;BME280;4389;41.932;25.904;2023-04-21T07:40:22;100126.72;;;16.22;72.33
8705;BME280;4389;41.932;25.904;2023-04-21T07:42:49;100121.97;;;16.32;71.93
8705;BME280;4389;41.932;25.904;2023-04-21T07:45:16;100107.72;;;16.39;72.93
8705;BME280;4389;41.932;25.904;2023-04-21T07:47:43;100117.91;;;16.58;71.31
8705;BME280;4389;41.932;25.904;2023-04-21T07:50:10;100115.22;;;16.73;69.84
8705;BME280;4389;41.932;25.904;2023-04-21T07:52:37;100117.97;;;16.65;69.16
8705;BME280;4389;41.932;25.904;2023-04-21T07:55:04;100120.94;;;16.99;71.31
8705;BME280;4389;41.932;25.904;2023-04-21T07:57:33;100120.66;;;16.94;67.46
8705;BME280;4389;41.932;25.904;2023-04-21T08:00:03;100106.19;;;17.03;69.63
8705;BME280;4389;41.932;25.904;2023-04-21T08:02:30;100115.22;;;17.02;68.85
8705;BME280;4389;41.932;25.904;2023-04-21T08:04:57;100105.44;;;17.09;70.11
8705;BME280;4389;41.932;25.904;2023-04-21T08:07:24;100108.16;;;17.30;69.24
8705;BME280;4389;41.932;25.904;2023-04-21T08:09:51;100104.84;;;17.28;64.30
8705;BME280;4389;41.932;25.904;2023-04-21T08:12:18;100096.63;;;17.44;65.91
8705;BME280;4389;41.932;25.904;2023-04-21T08:14:46;100100.59;;;17.48;65.15
8705;BME280;4389;41.932;25.904;2023-04-21T08:17:14;100094.34;;;17.62;64.49
8705;BME280;4389;41.932;25.904;2023-04-21T08:19:40;100094.63;;;17.67;65.35
8705;BME280;4389;41.932;25.904;2023-04-21T08:22:08;100091.19;;;17.52;65.23
8705;BME280;4389;41.932;25.904;2023-04-21T08:24:34;100084.56;;;17.69;64.54
8705;BME280;4389;41.932;25.904;2023-04-21T08:27:01;100073.44;;;17.93;65.06
8705;BME280;4389;41.932;25.904;2023-04-21T08:29:28;100076.22;;;18.06;65.46
8705;BME280;4389;41.932;25.904;2023-04-21T08:31:56;100068.69;;;18.37;63.85
8705;BME280;4389;41.932;25.904;2023-04-21T08:34:23;100074.06;;;18.37;63.01
8705;BME280;4389;41.932;25.904;2023-04-21T08:36:50;100068.50;;;18.17;62.72
8705;BME280;4389;41.932;25.904;2023-04-21T08:39:17;100072.16;;;18.31;63.01
8705;BME280;4389;41.932;25.904;2023-04-21T08:41:44;100079.31;;;18.03;63.27
8705;BME280;4389;41.932;25.904;2023-04-21T08:44:11;100064.75;;;18.33;62.28
8705;BME280;4389;41.932;25.904;2023-04-21T08:46:38;100063.41;;;18.50;61.27
8705;BME280;4389;41.932;25.904;2023-04-21T08:49:08;100061.03;;;18.34;59.20
8705;BME280;4389;41.932;25.904;2023-04-21T08:52:04;100064.34;;;18.36;60.48
8705;BME280;4389;41.932;25.904;2023-04-21T08:54:32;100062.69;;;18.35;60.27
8705;BME280;4389;41.932;25.904;2023-04-21T08:57:01;100054.91;;;18.40;60.78
8705;BME280;4389;41.932;25.904;2023-04-21T08:59:29;100048.69;;;18.39;61.12
8705;BME280;4389;41.932;25.904;2023-04-21T09:02:06;100052.94;;;18.61;61.73
8705;BME280;4389;41.932;25.904;2023-04-21T09:04:37;100057.50;;;18.61;60.07
8705;BME280;4389;41.932;25.904;2023-04-21T09:07:04;100041.78;;;18.58;59.88
8705;BME280;4389;41.932;25.904;2023-04-21T09:09:31;100051.72;;;18.64;59.69
8705;BME280;4389;41.932;25.904;2023-04-21T09:11:57;100039.34;;;18.63;59.28
8705;BME280;4389;41.932;25.904;2023-04-21T09:14:30;100046.44;;;18.77;59.50
8705;BME280;4389;41.932;25.904;2023-04-21T09:17:01;100053.44;;;18.71;58.81
8705;BME280;4389;41.932;25.904;2023-04-21T09:19:28;100041.88;;;18.71;58.44
8705;BME280;4389;41.932;25.904;2023-04-21T09:21:57;100031.28;;;18.96;57.63
8705;BME280;4389;41.932;25.904;2023-04-21T09:24:25;100037.94;;;19.13;59.22
8705;BME280;4389;41.932;25.904;2023-04-21T09:26:53;100044.41;;;19.25;57.74
8705;BME280;4389;41.932;25.904;2023-04-21T09:29:21;100028.31;;;19.25;58.82
8705;BME280;4389;41.932;25.904;2023-04-21T09:31:48;100020.94;;;19.53;58.04
8705;BME280;4389;41.932;25.904;2023-04-21T09:34:18;100035.22;;;19.86;57.47
8705;BME280;4389;41.932;25.904;2023-04-21T09:36:46;100028.22;;;20.11;55.79
8705;BME280;4389;41.932;25.904;2023-04-21T09:39:14;100016.38;;;19.99;54.45
8705;BME280;4389;41.932;25.904;2023-04-21T09:41:42;100032.75;;;19.98;51.74
8705;BME280;4389;41.932;25.904;2023-04-21T09:44:09;100020.56;;;20.08;50.44
8705;BME280;4389;41.932;25.904;2023-04-21T09:46:36;100015.38;;;20.00;53.09
8705;BME280;4389;41.932;25.904;2023-04-21T09:49:04;100010.00;;;20.13;54.05
8705;BME280;4389;41.932;25.904;2023-04-21T09:51:31;100014.16;;;20.22;52.76
8705;BME280;4389;41.932;25.904;2023-04-21T09:53:59;100021.56;;;20.33;51.66
8705;BME280;4389;41.932;25.904;2023-04-21T09:56:32;100025.91;;;20.34;49.89
8705;BME280;4389;41.932;25.904;2023-04-21T09:59:06;100013.72;;;20.32;51.20
8705;BME280;4389;41.932;25.904;2023-04-21T10:01:36;100010.81;;;20.20;50.59
8705;BME280;4389;41.932;25.904;2023-04-21T10:04:03;99995.50;;;20.27;52.16
8705;BME280;4389;41.932;25.904;2023-04-21T10:06:30;99999.81;;;20.41;48.40
8705;BME280;4389;41.932;25.904;2023-04-21T10:08:58;99995.31;;;20.35;48.95
8705;BME280;4389;41.932;25.904;2023-04-21T10:11:25;100007.84;;;20.61;50.79
8705;BME280;4389;41.932;25.904;2023-04-21T10:13:54;99991.50;;;20.62;52.71
8705;BME280;4389;41.932;25.904;2023-04-21T10:16:21;99994.22;;;20.56;49.26
8705;BME280;4389;41.932;25.904;2023-04-21T10:18:47;99986.34;;;20.54;51.47
8705;BME280;4389;41.932;25.904;2023-04-21T10:21:16;99980.56;;;20.57;51.44
8705;BME280;4389;41.932;25.904;2023-04-21T10:23:47;99990.53;;;20.50;45.80
8705;BME280;4389;41.932;25.904;2023-04-21T10:26:19;99977.19;;;20.68;44.27
8705;BME280;4389;41.932;25.904;2023-04-21T10:28:51;99980.47;;;20.90;48.96
8705;BME280;4389;41.932;25.904;2023-04-21T10:31:30;99972.34;;;20.96;47.04
8705;BME280;4389;41.932;25.904;2023-04-21T10:34:16;99976.09;;;20.95;47.88
8705;BME280;4389;41.932;25.904;2023-04-21T10:37:12;99973.06;;;20.72;47.11
8705;BME280;4389;41.932;25.904;2023-04-21T10:39:50;99966.31;;;20.50;48.40
8705;BME280;4389;41.932;25.904;2023-04-21T10:42:24;99960.06;;;20.63;49.42
8705;BME280;4389;41.932;25.904;2023-04-21T10:45:10;99967.94;;;20.64;45.96
8705;BME280;4389;41.932;25.904;2023-04-21T10:47:41;99965.16;;;20.77;44.78
8705;BME280;4389;41.932;25.904;2023-04-21T10:50:20;99958.09;;;20.89;45.02
8705;BME280;4389;41.932;25.904;2023-04-21T10:52:56;99955.00;;;21.23;45.40
8705;BME280;4389;41.932;25.904;2023-04-21T10:55:27;99964.53;;;21.19;48.02
8705;BME280;4389;41.932;25.904;2023-04-21T10:57:55;99956.84;;;20.92;46.72
8705;BME280;4389;41.932;25.904;2023-04-21T11:00:24;99967.94;;;20.64;45.33
8705;BME280;4389;41.932;25.904;2023-04-21T11:03:00;99958.25;;;20.50;45.42
8705;BME280;4389;41.932;25.904;2023-04-21T11:05:29;99968.88;;;20.76;45.30
8705;BME280;4389;41.932;25.904;2023-04-21T11:08:07;99960.31;;;21.36;43.67
8705;BME280;4389;41.932;25.904;2023-04-21T11:10:49;99964.31;;;22.07;42.10
8705;BME280;4389;41.932;25.904;2023-04-21T11:13:19;99965.25;;;22.73;40.06
8705;BME280;4389;41.932;25.904;2023-04-21T11:15:59;99962.66;;;22.96;40.88
8705;BME280;4389;41.932;25.904;2023-04-21T11:18:43;99954.81;;;22.41;43.33
8705;BME280;4389;41.932;25.904;2023-04-21T11:21:12;99961.47;;;22.20;43.40
8705;BME280;4389;41.932;25.904;2023-04-21T11:23:52;99966.06;;;21.95;43.19
8705;BME280;4389;41.932;25.904;2023-04-21T11:26:29;99972.91;;;21.42;42.78
8705;BME280;4389;41.932;25.904;2023-04-21T11:28:59;99969.53;;;21.16;42.34
8705;BME280;4389;41.932;25.904;2023-04-21T11:31:27;99965.16;;;21.52;44.28
8705;BME280;4389;41.932;25.904;2023-04-21T11:33:57;99960.88;;;21.94;42.16
8705;BME280;4389;41.932;25.904;2023-04-21T11:36:24;99969.41;;;22.33;40.13
8705;BME280;4389;41.932;25.904;2023-04-21T11:38:52;99968.09;;;22.60;40.46
8705;BME280;4389;41.932;25.904;2023-04-21T11:41:22;99969.72;;;22.61;39.34
8705;BME280;4389;41.932;25.904;2023-04-21T11:43:50;99965.47;;;22.54;39.79
8705;BME280;4389;41.932;25.904;2023-04-21T11:46:21;99968.38;;;22.88;39.41
8705;BME280;4389;41.932;25.904;2023-04-21T11:48:58;99963.06;;;23.11;37.25
8705;BME280;4389;41.932;25.904;2023-04-21T11:51:26;99961.66;;;23.38;36.62
8705;BME280;4389;41.932;25.904;2023-04-21T11:53:58;99974.00;;;23.34;42.12
8705;BME280;4389;41.932;25.904;2023-04-21T11:56:25;99979.72;;;23.08;45.97
8705;BME280;4389;41.932;25.904;2023-04-21T11:58:52;99962.56;;;22.13;48.22
8705;BME280;4389;41.932;25.904;2023-04-21T12:01:19;99971.59;;;21.51;50.22
8705;BME280;4389;41.932;25.904;2023-04-21T12:03:51;99961.50;;;21.40;49.38
8705;BME280;4389;41.932;25.904;2023-04-21T12:06:24;99969.41;;;21.04;51.19
8705;BME280;4389;41.932;25.904;2023-04-21T12:08:55;99963.91;;;20.86;51.18
8705;BME280;4389;41.932;25.904;2023-04-21T12:11:23;99956.03;;;20.85;51.41
8705;BME280;4389;41.932;25.904;2023-04-21T12:13:52;99961.84;;;20.88;50.70
8705;BME280;4389;41.932;25.904;2023-04-21T12:16:19;99958.09;;;20.89;49.10
8705;BME280;4389;41.932;25.904;2023-04-21T12:18:47;99960.97;;;20.94;49.00
8705;BME280;4389;41.932;25.904;2023-04-21T12:21:14;99948.38;;;20.88;50.62
8705;BME280;4389;41.932;25.904;2023-04-21T12:23:43;99951.69;;;20.90;47.10
8705;BME280;4389;41.932;25.904;2023-04-21T12:26:10;99941.97;;;20.83;48.48
8705;BME280;4389;41.932;25.904;2023-04-21T12:28:38;99938.28;;;21.15;45.85
8705;BME280;4389;41.932;25.904;2023-04-21T12:31:05;99931.72;;;21.66;45.74
8705;BME280;4389;41.932;25.904;2023-04-21T12:33:32;99943.75;;;21.88;45.13
8705;BME280;4389;41.932;25.904;2023-04-21T12:35:59;99934.44;;;21.84;45.83
8705;BME280;4389;41.932;25.904;2023-04-21T12:38:26;99929.38;;;22.12;45.85
8705;BME280;4389;41.932;25.904;2023-04-21T12:40:54;99920.13;;;22.26;43.12
8705;BME280;4389;41.932;25.904;2023-04-21T12:43:22;99935.28;;;22.27;44.40
8705;BME280;4389;41.932;25.904;2023-04-21T12:45:49;99938.22;;;22.01;43.09
8705;BME280;4389;41.932;25.904;2023-04-21T12:48:17;99941.03;;;21.70;42.43
8705;BME280;4389;41.932;25.904;2023-04-21T12:50:44;99934.00;;;21.63;44.58
8705;BME280;4389;41.932;25.904;2023-04-21T12:53:11;99948.13;;;21.58;42.35
8705;BME280;4389;41.932;25.904;2023-04-21T12:55:38;99940.13;;;21.76;43.80
8705;BME280;4389;41.932;25.904;2023-04-21T12:58:06;99950.06;;;22.00;45.09
8705;BME280;4389;41.932;25.904;2023-04-21T13:00:33;99954.22;;;21.78;44.88
8705;BME280;4389;41.932;25.904;2023-04-21T13:03:00;99966.28;;;21.69;44.43
8705;BME280;4389;41.932;25.904;2023-04-21T13:05:28;99958.66;;;21.66;44.09